Red Lake Falls, Minnesota
Current Conditions -  °F | °C
As of 11:35 PM on Monday 26 Jan 2015 (Local Time) from KTVF Reporting Station
Overcast Overcast  
Wind Chill: 27°   Ceiling: 500
Heat Index: 27°   Visibility: 10mi
Dew Point: 25°   Wind: 0mph
Humidity: 93%   Direction: NA
Pressure: 30.02"   Gusts: NA
Location:  47.88°N, 96.27°W
Report Text: KTVF 270535Z AUTO 00000KT 10SM OVC005 M03/M04 A3002 RMK AO1
Loading
Personal Weather Stations






























Interactive Weather Map New forecast layout! Learn more

10-Day Weather Forecast

Advertisements
Track Severe Weather on mobile